Time;durP1;ratioP1;P1;durP2;ratioP2;P2;SDS_P1;SDS_P2;PMS_P1;PMS_P2;Temp;Humidity;BMP_temperature;BMP_pressure;BME280_temperature;BME280_humidity;BME280_pressure;Samples;Min_cycle;Max_cycle;Signal;HPM_P1;HPM_P2
2024/04/10 00:01:36;;;;;;;27.63;13.25;;;;;;;;;;5409449;26;20004;-49
2024/04/10 00:04:02;;;;;;;25.42;13.10;;;;;;;;;;5407550;26;20022;-53
2024/04/10 00:06:28;;;;;;;24.50;11.85;;;;;;;;;;5380911;26;20020;-52
2024/04/10 00:08:53;;;;;;;28.50;12.07;;;;;;;;;;5369696;26;20000;-50
2024/04/10 00:11:22;;;;;;;21.67;12.43;;;;;;;;;;5373386;26;20020;-48
2024/04/10 00:13:48;;;;;;;24.02;11.23;;;;;;;;;;5374026;26;20016;-49
2024/04/10 00:16:13;;;;;;;27.08;13.20;;;;;;;;;;5374638;26;20553;-52
2024/04/10 00:18:39;;;;;;;22.35;11.88;;;;;;;;;;5398085;26;20014;-49
2024/04/10 00:21:05;;;;;;;27.48;14.57;;;;;;;;;;5410334;26;20014;-50
2024/04/10 00:23:30;;;;;;;30.15;15.43;;;;;;;;;;5407662;26;20004;-51
2024/04/10 00:25:57;;;;;;;28.17;14.23;;;;;;;;;;5398785;26;20008;-46
2024/04/10 00:28:24;;;;;;;27.13;14.90;;;;;;;;;;5387362;26;20003;-52
2024/04/10 00:30:50;;;;;;;30.23;12.52;;;;;;;;;;5407810;26;20003;-54
2024/04/10 00:33:16;;;;;;;25.40;13.10;;;;;;;;;;5409537;26;20011;-54
2024/04/10 00:35:42;;;;;;;22.67;12.57;;;;;;;;;;5409519;26;20018;-52
2024/04/10 00:38:07;;;;;;;32.42;12.15;;;;;;;;;;5407257;26;20008;-54
2024/04/10 00:40:33;;;;;;;23.65;11.98;;;;;;;;;;5405375;26;20463;-50
2024/04/10 00:43:02;;;;;;;25.17;13.23;;;;;;;;;;5373750;26;20012;-51
2024/04/10 00:45:28;;;;;;;21.17;11.77;;;;;;;;;;5408158;26;20003;-52
2024/04/10 00:47:54;;;;;;;27.70;11.98;;;;;;;;;;5375596;26;20004;-52
2024/04/10 00:50:20;;;;;;;23.27;11.43;;;;;;;;;;5373537;26;20015;-51
2024/04/10 00:52:46;;;;;;;19.35;11.20;;;;;;;;;;5371708;26;20012;-54
2024/04/10 00:55:15;;;;;;;21.67;11.32;;;;;;;;;;5389812;26;20082;-51
2024/04/10 00:57:41;;;;;;;23.02;10.85;;;;;;;;;;5407198;26;20004;-51
2024/04/10 01:00:07;;;;;;;21.08;11.30;;;;;;;;;;5408604;26;20007;-49
2024/04/10 01:02:33;;;;;;;21.88;11.38;;;;;;;;;;5406713;26;20371;-50
2024/04/10 01:04:59;;;;;;;26.38;10.82;;;;;;;;;;5369951;26;20488;-47
2024/04/10 01:07:25;;;;;;;21.50;12.13;;;;;;;;;;5370325;26;20000;-51
2024/04/10 01:09:50;;;;;;;25.95;11.85;;;;;;;;;;5371320;26;19996;-51
2024/04/10 01:12:16;;;;;;;20.25;10.02;;;;;;;;;;5403968;26;20521;-51
2024/04/10 01:14:42;;;;;;;24.70;11.48;;;;;;;;;;5404968;26;20004;-53
2024/04/10 01:17:07;;;;;;;23.00;11.73;;;;;;;;;;5404662;26;20031;-52
2024/04/10 01:19:33;;;;;;;23.60;11.98;;;;;;;;;;5407634;26;20023;-51
2024/04/10 01:21:59;;;;;;;27.95;11.60;;;;;;;;;;5405351;26;20004;-52
2024/04/10 01:24:25;;;;;;;26.08;12.20;;;;;;;;;;5407343;26;20007;-52
2024/04/10 01:26:50;;;;;;;31.05;13.45;;;;;;;;;;5374459;26;20000;-50
2024/04/10 01:29:16;;;;;;;21.50;11.85;;;;;;;;;;5407476;26;20396;-55
2024/04/10 01:31:42;;;;;;;27.02;13.27;;;;;;;;;;5407525;26;20020;-49
2024/04/10 01:34:07;;;;;;;29.98;14.43;;;;;;;;;;5407791;26;20494;-52
2024/04/10 01:36:33;;;;;;;29.85;14.63;;;;;;;;;;5402332;26;20014;-55
2024/04/10 01:38:58;;;;;;;31.30;14.68;;;;;;;;;;5405877;26;20062;-53
2024/04/10 01:41:24;;;;;;;34.22;15.02;;;;;;;;;;5410317;26;20011;-51
2024/04/10 01:43:51;;;;;;;28.55;14.63;;;;;;;;;;5408212;26;20072;-51
2024/04/10 01:46:17;;;;;;;35.45;15.15;;;;;;;;;;5405550;26;20482;-48
2024/04/10 01:48:42;;;;;;;33.80;15.75;;;;;;;;;;5407775;26;20039;-52
2024/04/10 01:51:08;;;;;;;30.92;16.08;;;;;;;;;;5409164;26;20457;-53
2024/04/10 01:53:34;;;;;;;37.72;16.70;;;;;;;;;;5408754;26;20011;-54
2024/04/10 01:55:59;;;;;;;33.97;16.77;;;;;;;;;;5408688;26;20018;-48
2024/04/10 01:58:25;;;;;;;33.13;17.40;;;;;;;;;;5408622;26;20081;-52
2024/04/10 02:00:51;;;;;;;32.78;16.00;;;;;;;;;;5350710;26;20015;-50
2024/04/10 02:03:17;;;;;;;37.45;17.92;;;;;;;;;;5410729;26;20085;-53
2024/04/10 02:05:43;;;;;;;27.55;14.60;;;;;;;;;;5410478;26;20012;-48
2024/04/10 02:08:09;;;;;;;33.47;16.58;;;;;;;;;;5405273;26;20478;-52
2024/04/10 02:10:34;;;;;;;28.42;14.20;;;;;;;;;;5400729;26;20000;-53
2024/04/10 02:13:00;;;;;;;30.08;13.25;;;;;;;;;;5405099;26;20016;-52
2024/04/10 02:15:26;;;;;;;24.55;12.43;;;;;;;;;;5335543;26;20466;-54
2024/04/10 02:17:52;;;;;;;24.48;12.10;;;;;;;;;;5405138;26;20003;-53
2024/04/10 02:20:18;;;;;;;27.48;12.48;;;;;;;;;;5408500;26;20407;-50
2024/04/10 02:22:43;;;;;;;26.88;11.93;;;;;;;;;;5410472;26;20552;-54
2024/04/10 02:25:09;;;;;;;21.52;10.65;;;;;;;;;;5410096;26;20015;-54
2024/04/10 02:27:34;;;;;;;21.83;10.30;;;;;;;;;;5400024;26;20000;-53
2024/04/10 02:30:00;;;;;;;20.13;10.02;;;;;;;;;;5404994;26;20548;-50
2024/04/10 02:32:26;;;;;;;21.73;8.90;;;;;;;;;;5406437;26;20003;-53
2024/04/10 02:34:52;;;;;;;17.15;8.80;;;;;;;;;;5407894;26;20047;-50
2024/04/10 02:37:18;;;;;;;18.70;9.45;;;;;;;;;;5407179;26;20474;-52
2024/04/10 02:39:44;;;;;;;17.67;9.02;;;;;;;;;;5407297;26;20003;-50
2024/04/10 02:42:09;;;;;;;16.30;8.27;;;;;;;;;;5407717;26;20565;-50
2024/04/10 02:44:35;;;;;;;18.50;8.40;;;;;;;;;;5408072;26;20000;-54
2024/04/10 02:47:01;;;;;;;16.80;8.02;;;;;;;;;;5406837;26;20348;-52
2024/04/10 02:49:27;;;;;;;12.57;6.63;;;;;;;;;;5377223;26;20008;-49
2024/04/10 02:51:53;;;;;;;13.15;6.85;;;;;;;;;;5371192;26;20465;-48
2024/04/10 02:54:19;;;;;;;12.10;7.07;;;;;;;;;;5372740;26;20000;-48
2024/04/10 02:56:44;;;;;;;12.32;6.47;;;;;;;;;;5373152;26;20019;-52
2024/04/10 02:59:10;;;;;;;17.70;5.75;;;;;;;;;;5372780;26;20015;-49
2024/04/10 03:01:36;;;;;;;11.15;5.80;;;;;;;;;;5374659;26;20000;-57
2024/04/10 03:04:02;;;;;;;9.85;5.65;;;;;;;;;;5373616;26;20005;-52
2024/04/10 03:06:28;;;;;;;12.02;5.60;;;;;;;;;;5370827;26;20044;-51
2024/04/10 03:08:53;;;;;;;13.10;6.20;;;;;;;;;;5378024;26;20008;-53
2024/04/10 03:11:19;;;;;;;13.25;6.10;;;;;;;;;;5374564;26;20015;-51
2024/04/10 03:13:45;;;;;;;14.05;6.85;;;;;;;;;;5374957;26;20545;-51
2024/04/10 03:16:11;;;;;;;12.18;6.07;;;;;;;;;;5395127;26;20018;-51
2024/04/10 03:18:36;;;;;;;13.65;6.30;;;;;;;;;;5405853;26;20458;-54
2024/04/10 03:21:02;;;;;;;10.88;6.00;;;;;;;;;;5408084;26;20014;-50
2024/04/10 03:23:28;;;;;;;11.90;6.22;;;;;;;;;;5408216;26;20451;-52
2024/04/10 03:26:01;;;;;;;10.65;6.25;;;;;;;;;;5409879;26;20012;-50
2024/04/10 03:28:27;;;;;;;12.55;5.97;;;;;;;;;;5410189;26;20880;-51
2024/04/10 03:30:52;;;;;;;9.10;5.57;;;;;;;;;;5379411;26;20015;-52
2024/04/10 03:33:18;;;;;;;7.13;4.00;;;;;;;;;;5375120;26;20004;-49
2024/04/10 03:35:44;;;;;;;4.78;3.25;;;;;;;;;;5375093;26;20000;-51
2024/04/10 03:38:09;;;;;;;6.95;4.00;;;;;;;;;;5402302;26;20479;-48
2024/04/10 03:40:35;;;;;;;6.03;3.25;;;;;;;;;;5390418;26;20000;-53
2024/04/10 03:43:08;;;;;;;5.97;3.25;;;;;;;;;;5403252;26;20010;-54
2024/04/10 03:45:35;;;;;;;6.18;3.00;;;;;;;;;;5408205;26;20491;-56
2024/04/10 03:48:02;;;;;;;4.93;2.80;;;;;;;;;;5410305;26;20015;-54
2024/04/10 03:50:30;;;;;;;3.70;2.57;;;;;;;;;;5394294;26;20016;-50
2024/04/10 03:52:57;;;;;;;4.75;2.97;;;;;;;;;;5385511;26;20018;-53
2024/04/10 03:55:23;;;;;;;6.78;2.65;;;;;;;;;;5401254;26;20019;-51
2024/04/10 03:57:49;;;;;;;4.55;2.85;;;;;;;;;;5409301;26;20031;-52
2024/04/10 04:00:14;;;;;;;4.72;2.60;;;;;;;;;;5405499;26;20023;-51
2024/04/10 04:02:44;;;;;;;6.97;3.08;;;;;;;;;;5408544;26;20359;-51
2024/04/10 04:05:09;;;;;;;7.07;3.22;;;;;;;;;;5406911;26;20486;-51
2024/04/10 04:07:36;;;;;;;7.30;3.28;;;;;;;;;;5348153;26;20003;-53
2024/04/10 04:10:02;;;;;;;6.18;2.90;;;;;;;;;;5404275;26;20026;-50
2024/04/10 04:12:30;;;;;;;5.18;2.63;;;;;;;;;;5348873;26;20073;-52
2024/04/10 04:14:55;;;;;;;6.45;2.60;;;;;;;;;;5404049;26;20019;-53
2024/04/10 04:17:22;;;;;;;7.18;3.47;;;;;;;;;;5407375;26;20011;-50
2024/04/10 04:19:48;;;;;;;5.55;3.42;;;;;;;;;;5407247;26;20870;-56
2024/04/10 04:22:14;;;;;;;3.72;2.65;;;;;;;;;;5405318;26;20011;-54
2024/04/10 04:24:39;;;;;;;5.45;3.47;;;;;;;;;;5377246;26;20120;-52
2024/04/10 04:27:05;;;;;;;6.13;3.22;;;;;;;;;;5408820;26;20494;-48
2024/04/10 04:29:31;;;;;;;4.82;2.95;;;;;;;;;;5407094;26;20396;-56
2024/04/10 04:31:57;;;;;;;4.43;3.03;;;;;;;;;;5394595;26;20004;-54
2024/04/10 04:34:23;;;;;;;5.30;2.88;;;;;;;;;;5373743;26;20389;-56
2024/04/10 04:36:49;;;;;;;4.25;2.85;;;;;;;;;;5372074;26;20134;-49
2024/04/10 04:39:15;;;;;;;5.90;2.85;;;;;;;;;;5373730;26;20101;-54
2024/04/10 04:41:41;;;;;;;6.60;3.72;;;;;;;;;;5373882;26;20048;-52
2024/04/10 04:44:07;;;;;;;6.45;3.60;;;;;;;;;;5386659;26;20011;-52
2024/04/10 04:46:33;;;;;;;5.07;3.05;;;;;;;;;;5406921;26;20018;-56
2024/04/10 04:48:59;;;;;;;8.32;3.63;;;;;;;;;;5407119;26;20076;-55
2024/04/10 04:51:27;;;;;;;8.27;4.35;;;;;;;;;;5405606;26;20879;-52
2024/04/10 04:53:53;;;;;;;7.40;4.27;;;;;;;;;;5408331;26;20007;-52
2024/04/10 04:56:18;;;;;;;8.52;3.85;;;;;;;;;;5376945;26;20019;-50
2024/04/10 04:58:44;;;;;;;12.43;4.38;;;;;;;;;;5406627;26;20007;-52
2024/04/10 05:01:10;;;;;;;7.75;4.28;;;;;;;;;;5403035;26;20003;-52
2024/04/10 05:06:20;;;;;;;7.22;4.07;;;;;;;;;;5377344;26;20043;-52
2024/04/10 05:08:47;;;;;;;7.22;4.47;;;;;;;;;;5406930;26;20007;-50
2024/04/10 05:11:14;;;;;;;7.25;4.57;;;;;;;;;;5382161;26;20339;-51
2024/04/10 05:13:40;;;;;;;7.00;4.55;;;;;;;;;;5373123;26;20099;-49
2024/04/10 05:16:06;;;;;;;8.18;4.38;;;;;;;;;;5399298;26;20015;-52
2024/04/10 05:18:35;;;;;;;7.88;4.50;;;;;;;;;;5376184;26;20153;-52
2024/04/10 05:21:00;;;;;;;6.68;4.20;;;;;;;;;;5391584;26;20008;-51
2024/04/10 05:23:26;;;;;;;7.20;4.55;;;;;;;;;;5370337;26;20077;-50
2024/04/10 05:25:54;;;;;;;11.48;4.47;;;;;;;;;;5373268;26;20478;-53
2024/04/10 05:28:24;;;;;;;11.25;5.43;;;;;;;;;;5371013;26;20460;-51
2024/04/10 05:30:49;;;;;;;6.57;4.88;;;;;;;;;;5371368;26;20036;-54
2024/04/10 05:33:15;;;;;;;8.25;5.45;;;;;;;;;;5370943;26;20571;-57
2024/04/10 05:35:41;;;;;;;12.07;5.18;;;;;;;;;;5371144;26;20018;-49
2024/04/10 05:38:06;;;;;;;10.40;5.57;;;;;;;;;;5371586;26;20009;-55
2024/04/10 05:40:32;;;;;;;7.47;4.95;;;;;;;;;;5371684;26;20442;-52
2024/04/10 05:42:58;;;;;;;7.55;5.32;;;;;;;;;;5373638;26;20040;-49
2024/04/10 05:45:23;;;;;;;9.02;5.13;;;;;;;;;;5373210;26;20016;-49
2024/04/10 05:47:49;;;;;;;9.60;5.93;;;;;;;;;;5370422;26;20004;-50
2024/04/10 05:50:22;;;;;;;11.18;6.00;;;;;;;;;;5372829;26;20008;-54
2024/04/10 05:52:48;;;;;;;9.75;5.72;;;;;;;;;;5373237;26;20015;-51
2024/04/10 05:55:13;;;;;;;11.77;6.03;;;;;;;;;;5370605;26;20051;-53
2024/04/10 05:57:39;;;;;;;11.48;6.80;;;;;;;;;;5370077;26;20036;-53
2024/04/10 06:00:07;;;;;;;9.63;6.28;;;;;;;;;;5372564;26;20078;-54
2024/04/10 06:02:38;;;;;;;9.90;6.55;;;;;;;;;;5372993;26;20001;-49
2024/04/10 06:05:05;;;;;;;10.88;6.90;;;;;;;;;;5370335;26;20004;-56
2024/04/10 06:07:33;;;;;;;9.90;6.50;;;;;;;;;;5371998;26;20614;-55
2024/04/10 06:09:58;;;;;;;11.93;7.43;;;;;;;;;;5371805;26;20118;-54
2024/04/10 06:12:24;;;;;;;9.38;6.90;;;;;;;;;;5343784;26;20353;-54
2024/04/10 06:14:53;;;;;;;10.95;6.72;;;;;;;;;;5375636;26;20552;-53
2024/04/10 06:17:22;;;;;;;11.98;7.80;;;;;;;;;;5371753;26;20545;-54
2024/04/10 06:19:48;;;;;;;12.63;7.45;;;;;;;;;;5369791;26;20037;-54
2024/04/10 06:22:14;;;;;;;14.27;8.43;;;;;;;;;;5340765;26;20023;-53
2024/04/10 06:24:42;;;;;;;19.45;8.95;;;;;;;;;;5371196;26;20582;-53
2024/04/10 06:27:07;;;;;;;12.75;6.40;;;;;;;;;;5373856;26;20000;-53
2024/04/10 06:29:33;;;;;;;13.48;7.50;;;;;;;;;;5373789;26;20014;-51
2024/04/10 06:31:58;;;;;;;13.63;7.00;;;;;;;;;;5375321;26;20000;-54
2024/04/10 06:34:24;;;;;;;13.48;6.88;;;;;;;;;;5344972;26;20008;-50
2024/04/10 06:36:50;;;;;;;13.13;7.40;;;;;;;;;;5373640;26;20008;-52
2024/04/10 06:39:16;;;;;;;13.25;7.22;;;;;;;;;;5373589;26;20006;-55
2024/04/10 06:41:41;;;;;;;9.98;6.45;;;;;;;;;;5375233;26;20017;-54
2024/04/10 06:44:07;;;;;;;11.20;6.97;;;;;;;;;;5375498;26;20015;-54
2024/04/10 06:46:33;;;;;;;11.68;7.05;;;;;;;;;;5315763;26;20356;-53
2024/04/10 06:48:59;;;;;;;14.55;8.18;;;;;;;;;;5375259;26;20040;-54
2024/04/10 06:51:24;;;;;;;13.13;7.40;;;;;;;;;;5373295;26;20008;-51
2024/04/10 06:53:50;;;;;;;14.05;8.05;;;;;;;;;;5380512;26;20082;-55
2024/04/10 06:56:16;;;;;;;13.45;8.48;;;;;;;;;;5372087;26;20018;-54
2024/04/10 06:58:42;;;;;;;13.40;8.25;;;;;;;;;;5375406;26;20001;-51
2024/04/10 07:01:09;;;;;;;15.85;8.38;;;;;;;;;;5373884;26;20028;-52
2024/04/10 07:03:39;;;;;;;15.02;9.02;;;;;;;;;;5375259;26;20011;-52
2024/04/10 07:06:06;;;;;;;14.90;8.60;;;;;;;;;;5374308;26;20001;-55
2024/04/10 07:08:38;;;;;;;15.48;9.57;;;;;;;;;;5372966;26;20075;-50
2024/04/10 07:11:11;;;;;;;14.85;9.02;;;;;;;;;;5372898;26;20001;-47
2024/04/10 07:13:38;;;;;;;14.75;9.63;;;;;;;;;;5375100;26;20042;-51
2024/04/10 07:16:04;;;;;;;16.90;10.27;;;;;;;;;;5375619;26;20012;-52
2024/04/10 07:18:30;;;;;;;15.80;10.05;;;;;;;;;;5390675;26;20014;-52
2024/04/10 07:21:00;;;;;;;20.02;10.35;;;;;;;;;;5408167;26;21527;-54
2024/04/10 07:23:25;;;;;;;16.77;10.70;;;;;;;;;;5407491;26;20014;-56
2024/04/10 07:25:51;;;;;;;19.60;10.20;;;;;;;;;;5391362;26;20036;-55
2024/04/10 07:28:17;;;;;;;18.77;10.25;;;;;;;;;;5390694;26;20086;-54
2024/04/10 07:30:49;;;;;;;17.27;11.23;;;;;;;;;;5391596;26;20372;-52
2024/04/10 07:33:14;;;;;;;17.55;11.43;;;;;;;;;;5383752;26;20032;-49
2024/04/10 07:35:40;;;;;;;21.42;13.68;;;;;;;;;;5399294;26;20026;-55
2024/04/10 07:38:06;;;;;;;19.20;11.63;;;;;;;;;;5408712;26;19996;-54
2024/04/10 07:40:32;;;;;;;15.13;11.98;;;;;;;;;;5407259;26;20019;-53
2024/04/10 07:42:58;;;;;;;17.38;12.82;;;;;;;;;;5409537;26;20077;-53
2024/04/10 07:45:29;;;;;;;20.58;11.63;;;;;;;;;;5387421;26;20019;-49
2024/04/10 07:47:55;;;;;;;23.00;13.55;;;;;;;;;;5374189;26;20007;-55
2024/04/10 07:50:21;;;;;;;16.80;10.90;;;;;;;;;;5372373;26;20016;-52
2024/04/10 07:52:46;;;;;;;17.80;11.95;;;;;;;;;;5373939;26;20566;-51
2024/04/10 07:55:12;;;;;;;20.13;12.10;;;;;;;;;;5380451;26;20004;-53
2024/04/10 07:57:39;;;;;;;21.50;14.02;;;;;;;;;;5391071;26;20004;-54
2024/04/10 08:00:08;;;;;;;29.40;13.95;;;;;;;;;;5373832;26;20005;-52
2024/04/10 08:02:37;;;;;;;19.55;12.55;;;;;;;;;;5373035;26;20577;-54
2024/04/10 08:05:03;;;;;;;19.90;11.88;;;;;;;;;;5371678;26;20012;-51
2024/04/10 08:07:30;;;;;;;23.05;13.55;;;;;;;;;;5373412;26;20012;-55
2024/04/10 08:09:56;;;;;;;24.20;13.65;;;;;;;;;;5371737;26;20505;-54
2024/04/10 08:12:21;;;;;;;17.48;11.57;;;;;;;;;;5372191;26;20015;-52
2024/04/10 08:14:50;;;;;;;17.60;11.05;;;;;;;;;;5393994;26;20008;-50
2024/04/10 08:17:16;;;;;;;14.25;8.90;;;;;;;;;;5392704;26;20374;-52
2024/04/10 08:19:46;;;;;;;17.63;8.55;;;;;;;;;;5377008;26;20008;-53
2024/04/10 08:22:12;;;;;;;17.27;9.80;;;;;;;;;;5407307;26;20487;-55
2024/04/10 08:24:38;;;;;;;16.42;8.02;;;;;;;;;;5406103;26;20015;-55
2024/04/10 08:27:03;;;;;;;18.55;8.70;;;;;;;;;;5390225;26;20004;-51
2024/04/10 08:29:29;;;;;;;16.25;8.48;;;;;;;;;;5372207;26;20012;-55
2024/04/10 08:31:56;;;;;;;14.48;6.47;;;;;;;;;;5373701;26;20014;-52
2024/04/10 08:34:22;;;;;;;16.07;7.70;;;;;;;;;;5373823;26;20814;-54
2024/04/10 08:36:48;;;;;;;12.75;5.95;;;;;;;;;;5372340;26;20242;-54
2024/04/10 08:39:13;;;;;;;14.90;6.25;;;;;;;;;;5371933;26;20074;-54
2024/04/10 08:41:40;;;;;;;19.23;7.35;;;;;;;;;;5371776;26;20009;-54
2024/04/10 08:44:06;;;;;;;12.13;6.57;;;;;;;;;;5373432;26;20019;-55
2024/04/10 08:46:34;;;;;;;13.18;6.53;;;;;;;;;;5370768;26;20019;-55
2024/04/10 08:49:01;;;;;;;15.20;6.50;;;;;;;;;;5372146;26;20487;-49
2024/04/10 08:51:28;;;;;;;16.63;6.47;;;;;;;;;;5370070;26;20024;-53
2024/04/10 08:53:54;;;;;;;;;;;;;;;;;;5371696;26;20577;-52
2024/04/10 08:56:19;;;;;;;18.13;6.63;;;;;;;;;;5370392;26;20243;-52
2024/04/10 08:58:45;;;;;;;14.93;6.85;;;;;;;;;;5398159;26;20018;-50
2024/04/10 09:01:23;;;;;;;17.63;7.00;;;;;;;;;;5408631;26;20014;-50
2024/04/10 09:03:49;;;;;;;13.90;6.70;;;;;;;;;;5408295;26;20538;-53
2024/04/10 09:06:18;;;;;;;17.58;6.45;;;;;;;;;;5408226;26;20144;-51
2024/04/10 09:08:54;;;;;;;13.88;6.45;;;;;;;;;;5379676;26;20589;-51
2024/04/10 09:13:08;;;;;;;14.77;6.60;;;;;;;;;;5462126;26;20333;-57
2024/04/10 09:15:35;;;;;;;19.85;7.55;;;;;;;;;;5424856;26;20022;-52
2024/04/10 09:18:00;;;;;;;18.23;7.45;;;;;;;;;;5424386;26;20007;-53
2024/04/10 09:20:26;;;;;;;19.15;8.20;;;;;;;;;;5406823;26;20058;-54
2024/04/10 09:23:01;;;;;;;19.13;8.50;;;;;;;;;;5407931;26;20008;-55
2024/04/10 09:25:27;;;;;;;13.50;7.80;;;;;;;;;;5391138;26;20078;-52
2024/04/10 09:27:59;;;;;;;16.65;8.70;;;;;;;;;;5391612;26;20024;-50
2024/04/10 09:30:25;;;;;;;15.48;8.88;;;;;;;;;;5391088;26;20023;-50
2024/04/10 09:32:53;;;;;;;17.02;8.00;;;;;;;;;;5390262;26;20008;-54
2024/04/10 09:35:19;;;;;;;23.23;9.60;;;;;;;;;;5388445;26;20471;-51
2024/04/10 09:37:45;;;;;;;14.60;8.25;;;;;;;;;;5388046;26;20012;-54
2024/04/10 09:40:11;;;;;;;24.00;8.95;;;;;;;;;;5388913;26;20023;-54
2024/04/10 09:42:39;;;;;;;22.35;9.25;;;;;;;;;;5388949;26;20011;-56
2024/04/10 09:45:10;;;;;;;20.77;9.88;;;;;;;;;;5371784;26;20018;-54
2024/04/10 09:47:36;;;;;;;15.80;7.40;;;;;;;;;;5390418;26;20016;-53
2024/04/10 09:50:05;;;;;;;18.08;8.32;;;;;;;;;;5405041;26;20030;-52
2024/04/10 09:52:32;;;;;;;21.15;9.23;;;;;;;;;;5425996;26;20126;-55
2024/04/10 09:54:59;;;;;;;22.05;8.45;;;;;;;;;;5394211;26;20483;-54
2024/04/10 09:57:24;;;;;;;16.83;8.60;;;;;;;;;;5426222;26;20003;-57
2024/04/10 09:59:51;;;;;;;17.58;9.05;;;;;;;;;;5409888;26;20369;-55
2024/04/10 10:02:17;;;;;;;15.80;8.55;;;;;;;;;;5405793;26;20022;-52
2024/04/10 10:04:42;;;;;;;17.23;8.20;;;;;;;;;;5425970;26;20027;-55
2024/04/10 10:07:08;;;;;;;19.85;9.27;;;;;;;;;;5425773;26;20026;-58
2024/04/10 10:09:34;;;;;;;18.35;9.27;;;;;;;;;;5415395;26;20004;-55
2024/04/10 10:12:00;;;;;;;15.63;9.43;;;;;;;;;;5390095;26;20004;-54
2024/04/10 10:14:27;;;;;;;15.82;9.32;;;;;;;;;;5390114;26;20031;-52
2024/04/10 10:17:04;;;;;;;16.02;8.98;;;;;;;;;;5388716;26;20008;-53
2024/04/10 10:19:32;;;;;;;16.85;9.57;;;;;;;;;;5388653;26;20011;-54
2024/04/10 10:21:58;;;;;;;19.00;9.80;;;;;;;;;;5386278;26;20502;-53
2024/04/10 10:24:24;;;;;;;16.58;9.45;;;;;;;;;;5372452;26;20005;-53
2024/04/10 10:26:57;;;;;;;20.85;9.60;;;;;;;;;;5343652;26;20023;-56
2024/04/10 10:29:22;;;;;;;19.40;12.13;;;;;;;;;;5372695;26;20015;-53
2024/04/10 10:31:48;;;;;;;20.60;11.38;;;;;;;;;;5374175;26;20012;-56
2024/04/10 10:34:22;;;;;;;19.05;12.05;;;;;;;;;;5374729;26;20008;-57
2024/04/10 10:36:50;;;;;;;23.52;11.88;;;;;;;;;;5374849;26;20479;-57
2024/04/10 10:39:16;;;;;;;20.58;11.15;;;;;;;;;;5371432;26;20022;-58
2024/04/10 10:41:41;;;;;;;19.35;11.77;;;;;;;;;;5373075;26;20004;-56
2024/04/10 10:44:07;;;;;;;20.27;11.40;;;;;;;;;;5373425;26;20023;-55
2024/04/10 10:46:34;;;;;;;17.02;10.75;;;;;;;;;;5408219;26;20022;-52
2024/04/10 10:48:59;;;;;;;21.75;10.45;;;;;;;;;;5410012;26;20007;-55
2024/04/10 10:51:29;;;;;;;20.27;9.75;;;;;;;;;;5398066;26;20019;-49
2024/04/10 10:53:55;;;;;;;22.45;9.27;;;;;;;;;;5343790;26;20024;-52
2024/04/10 10:56:31;;;;;;;15.35;9.00;;;;;;;;;;5343760;26;20048;-51
2024/04/10 10:59:07;;;;;;;16.65;8.57;;;;;;;;;;5375072;26;20014;-53
2024/04/10 11:01:35;;;;;;;16.98;8.50;;;;;;;;;;5349434;26;20040;-54
2024/04/10 11:04:13;;;;;;;15.30;6.80;;;;;;;;;;5350041;26;20007;-55
2024/04/10 11:06:39;;;;;;;16.55;7.40;;;;;;;;;;5378810;26;20004;-55
2024/04/10 11:09:12;;;;;;;15.23;6.65;;;;;;;;;;5408190;26;20596;-56
2024/04/10 11:11:42;;;;;;;14.93;6.90;;;;;;;;;;5404278;26;20382;-57
2024/04/10 11:14:11;;;;;;;14.77;6.90;;;;;;;;;;5374199;26;20008;-52
2024/04/10 11:16:36;;;;;;;13.75;6.88;;;;;;;;;;5372028;26;20018;-57
2024/04/10 11:19:03;;;;;;;14.45;6.70;;;;;;;;;;5395100;26;20011;-56
2024/04/10 11:21:29;;;;;;;;;;;;;;;;;;5408691;26;20540;-53
2024/04/10 11:23:55;;;;;;;12.88;5.80;;;;;;;;;;5374541;26;19995;-52
2024/04/10 11:26:21;;;;;;;13.20;6.28;;;;;;;;;;5374244;26;20044;-56
2024/04/10 11:28:52;;;;;;;18.52;6.35;;;;;;;;;;5371048;26;20011;-55
2024/04/10 11:31:18;;;;;;;14.90;5.53;;;;;;;;;;5372244;26;20012;-53
2024/04/10 11:33:43;;;;;;;14.55;5.30;;;;;;;;;;5372233;26;20114;-55
2024/04/10 11:36:09;;;;;;;18.88;5.47;;;;;;;;;;5319599;26;20003;-55
2024/04/10 11:38:37;;;;;;;16.10;5.65;;;;;;;;;;5398749;26;20791;-53
2024/04/10 11:41:07;;;;;;;16.83;4.72;;;;;;;;;;5377348;26;20065;-51
2024/04/10 11:43:33;;;;;;;14.95;5.50;;;;;;;;;;5401746;26;20011;-51
2024/04/10 11:45:59;;;;;;;17.10;5.22;;;;;;;;;;5384445;26;20356;-53
2024/04/10 11:48:25;;;;;;;16.08;4.93;;;;;;;;;;5373211;26;20024;-52
2024/04/10 11:50:51;;;;;;;17.75;5.22;;;;;;;;;;5371335;26;20008;-53
2024/04/10 11:53:16;;;;;;;10.75;5.28;;;;;;;;;;5374047;26;20568;-52
2024/04/10 11:55:42;;;;;;;14.77;5.50;;;;;;;;;;5408348;26;20015;-52
2024/04/10 11:58:08;;;;;;;19.13;5.75;;;;;;;;;;5408740;26;20026;-54
2024/04/10 12:00:34;;;;;;;16.23;5.82;;;;;;;;;;5407316;26;20479;-52
2024/04/10 12:03:00;;;;;;;20.20;5.05;;;;;;;;;;5409080;26;20075;-53
2024/04/10 12:05:25;;;;;;;15.15;6.18;;;;;;;;;;5373537;26;20009;-50
2024/04/10 12:07:52;;;;;;;14.27;6.20;;;;;;;;;;5371647;26;20566;-53
2024/04/10 12:10:18;;;;;;;17.23;6.60;;;;;;;;;;5373018;26;20008;-52
2024/04/10 12:12:50;;;;;;;18.45;6.95;;;;;;;;;;5371888;26;20379;-53
2024/04/10 12:15:16;;;;;;;18.60;6.82;;;;;;;;;;5389954;26;20054;-50
2024/04/10 12:17:42;;;;;;;17.08;6.45;;;;;;;;;;5376974;26;20008;-54
2024/04/10 12:20:07;;;;;;;15.20;6.47;;;;;;;;;;5408265;26;20014;-52
2024/04/10 12:22:35;;;;;;;;;;;;;;;;;;5409152;26;20026;-51
2024/04/10 12:25:01;;;;;;;19.27;6.75;;;;;;;;;;5390354;26;20756;-51
2024/04/10 12:27:30;;;;;;;12.30;6.25;;;;;;;;;;5372730;26;20020;-52
2024/04/10 12:29:55;;;;;;;14.52;5.45;;;;;;;;;;5372823;26;20012;-49
2024/04/10 12:32:21;;;;;;;9.90;4.55;;;;;;;;;;5373243;26;20019;-50
2024/04/10 12:34:47;;;;;;;14.75;4.93;;;;;;;;;;5373517;26;20012;-52
2024/04/10 12:39:57;;;;;;;11.73;7.35;;;;;;;;;;5384798;26;20106;-55
2024/04/10 12:42:23;;;;;;;14.30;4.20;;;;;;;;;;5370394;26;20008;-55
2024/04/10 12:44:49;;;;;;;11.30;4.78;;;;;;;;;;5368970;26;20441;-55
2024/04/10 12:47:15;;;;;;;11.43;4.88;;;;;;;;;;5372286;26;20108;-57
2024/04/10 12:49:42;;;;;;;15.15;4.88;;;;;;;;;;5392791;26;20040;-52
2024/04/10 12:52:08;;;;;;;10.60;4.43;;;;;;;;;;5392332;26;20019;-53
2024/04/10 12:54:35;;;;;;;7.90;4.45;;;;;;;;;;5339622;26;20016;-52
2024/04/10 12:57:01;;;;;;;11.32;4.72;;;;;;;;;;5392794;26;20004;-51
2024/04/10 12:59:27;;;;;;;13.40;5.05;;;;;;;;;;5386763;26;20020;-54
2024/04/10 13:01:53;;;;;;;14.18;5.22;;;;;;;;;;5372800;26;20044;-52
2024/04/10 13:04:19;;;;;;;10.95;5.72;;;;;;;;;;5395645;26;20004;-52
2024/04/10 13:06:46;;;;;;;9.50;5.20;;;;;;;;;;5386731;26;20447;-53
2024/04/10 13:09:12;;;;;;;11.63;5.85;;;;;;;;;;5389360;26;20378;-50
2024/04/10 13:11:38;;;;;;;13.13;6.22;;;;;;;;;;5386253;26;20016;-55
2024/04/10 13:14:04;;;;;;;14.30;6.72;;;;;;;;;;5360370;26;20051;-55
2024/04/10 13:16:30;;;;;;;14.95;6.57;;;;;;;;;;5392885;26;20015;-53
2024/04/10 13:18:56;;;;;;;16.20;6.22;;;;;;;;;;5392836;26;20487;-55
2024/04/10 13:21:22;;;;;;;14.50;6.25;;;;;;;;;;5377311;26;20018;-54
2024/04/10 13:23:47;;;;;;;16.35;5.80;;;;;;;;;;5406722;26;20019;-53
2024/04/10 13:26:13;;;;;;;13.43;6.72;;;;;;;;;;5408753;26;20065;-53
2024/04/10 13:28:41;;;;;;;10.38;6.28;;;;;;;;;;5371238;26;20004;-53
2024/04/10 13:31:23;;;;;;;13.25;6.40;;;;;;;;;;5373204;26;20417;-51
2024/04/10 13:33:55;;;;;;;18.25;6.30;;;;;;;;;;5373448;26;20008;-55
2024/04/10 13:36:24;;;;;;;12.85;5.97;;;;;;;;;;5371882;26;20004;-54
2024/04/10 13:38:51;;;;;;;14.38;6.70;;;;;;;;;;5371020;26;20146;-52
2024/04/10 13:41:17;;;;;;;18.38;7.05;;;;;;;;;;5372862;26;20041;-49
2024/04/10 13:43:43;;;;;;;16.80;7.40;;;;;;;;;;5373588;26;20008;-51
2024/04/10 13:46:10;;;;;;;14.18;6.75;;;;;;;;;;5373089;26;20036;-52
2024/04/10 13:48:38;;;;;;;19.25;7.63;;;;;;;;;;5370668;26;20421;-53
2024/04/10 13:51:04;;;;;;;18.48;7.68;;;;;;;;;;5370809;26;20406;-51
2024/04/10 13:53:33;;;;;;;15.82;6.90;;;;;;;;;;5341985;26;20020;-53
2024/04/10 13:56:09;;;;;;;21.30;8.23;;;;;;;;;;5370998;26;20014;-54
2024/04/10 13:58:35;;;;;;;24.23;7.35;;;;;;;;;;5374741;26;20008;-52
2024/04/10 14:01:13;;;;;;;20.67;8.02;;;;;;;;;;5376002;26;20488;-54
2024/04/10 14:03:42;;;;;;;19.33;6.97;;;;;;;;;;5375906;26;20018;-55
2024/04/10 14:06:08;;;;;;;19.75;7.00;;;;;;;;;;5373963;26;20379;-53
2024/04/10 14:08:34;;;;;;;16.10;6.50;;;;;;;;;;5374872;26;20023;-56
2024/04/10 14:11:00;;;;;;;15.35;7.25;;;;;;;;;;5400050;26;20372;-53
2024/04/10 14:13:26;;;;;;;17.48;6.68;;;;;;;;;;5409655;26;20475;-55
2024/04/10 14:15:55;;;;;;;24.67;6.80;;;;;;;;;;5411492;26;20004;-56
2024/04/10 14:18:22;;;;;;;17.85;7.03;;;;;;;;;;5404158;26;20059;-49
2024/04/10 14:20:48;;;;;;;14.45;6.90;;;;;;;;;;5374505;26;20529;-52
2024/04/10 14:23:14;;;;;;;14.85;7.03;;;;;;;;;;5345354;26;20521;-50
2024/04/10 14:25:40;;;;;;;17.13;6.78;;;;;;;;;;5376084;26;20004;-52
2024/04/10 14:28:06;;;;;;;21.17;7.07;;;;;;;;;;5375977;26;20466;-51
2024/04/10 14:30:31;;;;;;;18.80;7.55;;;;;;;;;;5374318;26;20004;-48
2024/04/10 14:32:57;;;;;;;21.98;7.40;;;;;;;;;;5374260;26;20004;-49